createdAt,value
2022-08-02T00:01:06.484Z,100.00
2022-08-02T00:03:35.264Z,100.00
2022-08-02T00:06:04.516Z,100.00
2022-08-02T00:08:36.046Z,100.00
2022-08-02T00:11:04.885Z,100.00
2022-08-02T00:13:33.613Z,100.00
2022-08-02T00:16:02.617Z,100.00
2022-08-02T00:18:31.226Z,100.00
2022-08-02T00:20:59.912Z,100.00
2022-08-02T00:23:28.955Z,100.00
2022-08-02T00:25:59.037Z,100.00
2022-08-02T00:28:28.424Z,100.00
2022-08-02T00:30:58.961Z,100.00
2022-08-02T00:34:28.406Z,100.00
2022-08-02T00:36:17.450Z,100.00
2022-08-02T00:38:46.584Z,100.00
2022-08-02T00:41:20.697Z,100.00
2022-08-02T00:43:51.489Z,100.00
2022-08-02T00:46:22.085Z,100.00
2022-08-02T00:48:51.302Z,100.00
2022-08-02T00:51:20.145Z,100.00
2022-08-02T00:53:49.245Z,100.00
2022-08-02T00:56:19.397Z,100.00
2022-08-02T00:58:48.450Z,100.00
2022-08-02T01:01:17.656Z,100.00
2022-08-02T01:03:46.442Z,100.00
2022-08-02T01:06:15.032Z,100.00
2022-08-02T01:08:43.938Z,100.00
2022-08-02T01:11:13.597Z,100.00
2022-08-02T01:13:43.941Z,100.00
2022-08-02T01:16:20.659Z,100.00
2022-08-02T01:18:59.081Z,100.00
2022-08-02T01:22:15.190Z,100.00
2022-08-02T01:25:16.308Z,100.00
2022-08-02T01:28:07.977Z,100.00
2022-08-02T01:30:40.158Z,100.00
2022-08-02T01:33:12.712Z,100.00
2022-08-02T01:35:47.142Z,100.00
2022-08-02T01:38:30.767Z,100.00
2022-08-02T01:41:03.486Z,100.00
2022-08-02T01:43:37.575Z,100.00
2022-08-02T01:46:08.432Z,100.00
2022-08-02T01:48:38.335Z,100.00
2022-08-02T01:51:09.604Z,100.00
2022-08-02T01:53:42.262Z,100.00
2022-08-02T01:56:13.957Z,100.00
2022-08-02T01:58:45.554Z,100.00
2022-08-02T02:01:18.619Z,100.00
2022-08-02T02:03:50.155Z,100.00
2022-08-02T02:06:21.748Z,100.00
2022-08-02T02:08:53.266Z,100.00
2022-08-02T02:12:09.316Z,100.00
2022-08-02T02:14:16.303Z,100.00
2022-08-02T02:16:50.499Z,100.00
2022-08-02T02:19:23.464Z,100.00
2022-08-02T02:21:52.574Z,100.00
2022-08-02T02:24:23.373Z,100.00
2022-08-02T02:26:53.103Z,100.00
2022-08-02T02:29:30.785Z,100.00
2022-08-02T02:32:02.494Z,100.00
2022-08-02T02:34:37.880Z,100.00
2022-08-02T02:37:13.875Z,100.00
2022-08-02T02:39:45.907Z,100.00
2022-08-02T02:42:19.685Z,100.00
2022-08-02T02:44:52.710Z,100.00
2022-08-02T02:47:23.662Z,100.00
2022-08-02T02:50:12.524Z,100.00
2022-08-02T02:52:43.332Z,100.00
2022-08-02T02:55:13.242Z,100.00
2022-08-02T02:57:43.352Z,100.00
2022-08-02T03:00:16.559Z,100.00
2022-08-02T03:02:46.804Z,100.00
2022-08-02T03:05:17.109Z,100.00
2022-08-02T03:07:46.131Z,100.00
2022-08-02T03:10:15.089Z,100.00
2022-08-02T03:12:44.009Z,100.00
2022-08-02T03:15:16.595Z,100.00
2022-08-02T03:17:47.374Z,100.00
2022-08-02T03:20:19.736Z,100.00
2022-08-02T03:22:49.015Z,100.00
2022-08-02T03:25:19.347Z,100.00
2022-08-02T03:27:48.628Z,100.00
2022-08-02T03:30:19.223Z,100.00
2022-08-02T03:32:50.142Z,100.00
2022-08-02T03:35:24.184Z,100.00
2022-08-02T03:37:56.790Z,100.00
2022-08-02T03:40:27.098Z,100.00
2022-08-02T03:42:56.683Z,100.00
2022-08-02T03:45:27.932Z,100.00
2022-08-02T03:47:58.813Z,100.00
2022-08-02T03:50:29.407Z,100.00
2022-08-02T03:52:59.784Z,100.00
2022-08-02T03:55:28.775Z,100.00
2022-08-02T03:57:57.813Z,100.00
2022-08-02T04:00:27.835Z,100.00
2022-08-02T04:02:56.795Z,100.00
2022-08-02T04:05:25.956Z,100.00
2022-08-02T04:08:03.594Z,100.00
2022-08-02T04:10:57.428Z,100.00
2022-08-02T04:13:35.857Z,100.00
2022-08-02T04:16:15.069Z,100.00
2022-08-02T04:18:53.225Z,100.00
2022-08-02T04:21:25.565Z,100.00
2022-08-02T04:23:57.191Z,100.00
2022-08-02T04:26:28.258Z,100.00
2022-08-02T04:28:59.015Z,100.00
2022-08-02T04:31:31.119Z,100.00
2022-08-02T04:34:00.453Z,100.00
2022-08-02T04:36:31.683Z,100.00
2022-08-02T04:39:00.811Z,100.00
2022-08-02T04:41:41.101Z,100.00
2022-08-02T04:44:13.086Z,100.00
2022-08-02T04:46:45.478Z,100.00
2022-08-02T04:49:14.597Z,100.00
2022-08-02T04:51:46.275Z,100.00
2022-08-02T04:54:15.213Z,100.00
2022-08-02T04:56:44.313Z,100.00
2022-08-02T04:59:13.271Z,100.00
2022-08-02T05:01:43.726Z,100.00
2022-08-02T05:04:12.762Z,100.00
2022-08-02T05:06:41.724Z,100.00
2022-08-02T05:09:10.681Z,100.00
2022-08-02T05:11:39.709Z,100.00
2022-08-02T05:14:09.177Z,100.00
2022-08-02T05:16:38.937Z,100.00
2022-08-02T05:19:28.232Z,100.00
2022-08-02T05:21:57.244Z,100.00
2022-08-02T05:24:26.036Z,100.00
2022-08-02T05:26:54.759Z,100.00
2022-08-02T05:29:23.616Z,100.00
2022-08-02T05:31:52.612Z,100.00
2022-08-02T05:34:22.861Z,100.00
2022-08-02T05:36:51.925Z,100.00
2022-08-02T05:39:21.338Z,100.00
2022-08-02T05:41:52.053Z,100.00
2022-08-02T05:44:20.948Z,100.00
2022-08-02T05:46:49.757Z,100.00
2022-08-02T05:49:19.468Z,100.00
2022-08-02T05:52:05.590Z,100.00
2022-08-02T05:54:50.306Z,100.00
2022-08-02T05:57:31.859Z,100.00
2022-08-02T06:00:09.495Z,100.00
2022-08-02T06:03:16.705Z,100.00
2022-08-02T06:06:00.171Z,100.00
2022-08-02T06:08:38.842Z,100.00
2022-08-02T06:11:13.726Z,100.00
2022-08-02T06:13:44.143Z,99.73
2022-08-02T06:16:14.886Z,98.97
2022-08-02T06:18:45.252Z,99.38
2022-08-02T06:22:37.543Z,99.27
2022-08-02T06:24:10.167Z,99.01
2022-08-02T06:26:39.687Z,99.64
2022-08-02T06:29:09.204Z,100.00
2022-08-02T06:31:39.280Z,98.08
2022-08-02T06:34:08.302Z,96.91
2022-08-02T06:36:49.013Z,97.48
2022-08-02T06:39:28.270Z,96.00
2022-08-02T06:42:06.946Z,95.53
2022-08-02T06:44:50.730Z,93.30
2022-08-02T06:47:20.711Z,94.12
2022-08-02T06:49:51.446Z,93.39
2022-08-02T06:52:28.886Z,95.17
2022-08-02T06:55:03.313Z,96.33
2022-08-02T06:57:32.895Z,97.01
2022-08-02T07:00:03.604Z,96.60
2022-08-02T07:02:32.880Z,96.21
2022-08-02T07:05:01.696Z,96.28
2022-08-02T07:07:30.923Z,95.88
2022-08-02T07:10:06.247Z,94.29
2022-08-02T07:12:37.595Z,93.70
2022-08-02T07:15:10.143Z,93.57
2022-08-02T07:17:38.850Z,92.50
2022-08-02T07:20:10.920Z,92.45
2022-08-02T07:22:39.734Z,91.02
2022-08-02T07:25:11.631Z,88.74
2022-08-02T07:27:40.694Z,88.37
2022-08-02T07:30:11.340Z,87.89
2022-08-02T07:32:40.452Z,87.33
2022-08-02T07:35:10.583Z,87.16
2022-08-02T07:37:55.256Z,84.57
2022-08-02T07:40:29.526Z,83.49
2022-08-02T07:43:03.795Z,81.11
2022-08-02T07:45:35.868Z,82.26
2022-08-02T07:48:06.163Z,82.40
2022-08-02T07:50:34.882Z,80.92
2022-08-02T07:53:03.485Z,79.33
2022-08-02T07:55:40.523Z,78.90
2022-08-02T07:58:13.097Z,73.56
2022-08-02T08:00:45.029Z,69.97
2022-08-02T08:03:14.023Z,69.50
2022-08-02T08:05:42.941Z,71.40
2022-08-02T08:08:16.909Z,69.27
2022-08-02T08:10:48.127Z,69.51
2022-08-02T08:13:17.179Z,66.69
2022-08-02T08:15:51.475Z,69.41
2022-08-02T08:18:22.155Z,69.11
2022-08-02T08:20:51.863Z,68.49
2022-08-02T08:23:20.779Z,68.64
2022-08-02T08:25:50.838Z,69.85
2022-08-02T08:28:19.538Z,69.57
2022-08-02T08:30:48.606Z,70.49
2022-08-02T08:33:17.609Z,69.10
2022-08-02T08:35:46.277Z,62.75
2022-08-02T08:38:15.783Z,64.35
2022-08-02T08:40:44.982Z,65.52
2022-08-02T08:43:15.793Z,65.58
2022-08-02T08:45:55.633Z,61.29
2022-08-02T08:48:31.204Z,59.75
2022-08-02T08:51:11.742Z,57.77
2022-08-02T08:53:45.064Z,58.40
2022-08-02T08:56:16.759Z,58.15
2022-08-02T08:58:48.564Z,55.39
2022-08-02T09:01:18.157Z,57.39
2022-08-02T09:03:50.778Z,56.25
2022-08-02T09:06:19.513Z,54.59
2022-08-02T09:08:48.174Z,54.28
2022-08-02T09:11:18.971Z,49.01
2022-08-02T09:13:55.225Z,49.38
2022-08-02T09:16:34.045Z,50.03
2022-08-02T09:19:07.730Z,50.25
2022-08-02T09:21:39.315Z,52.26
2022-08-02T09:24:19.294Z,54.89
2022-08-02T09:26:49.482Z,55.08
2022-08-02T09:29:23.040Z,55.69
2022-08-02T09:31:53.574Z,55.86
2022-08-02T09:34:22.737Z,53.88
2022-08-02T09:36:54.614Z,52.65
2022-08-02T09:39:26.501Z,49.11
2022-08-02T09:42:10.886Z,48.95
2022-08-02T09:44:41.300Z,48.00
2022-08-02T09:47:18.278Z,47.30
2022-08-02T09:49:52.287Z,46.49
2022-08-02T09:52:37.306Z,47.14
2022-08-02T09:55:14.444Z,47.82
2022-08-02T09:57:43.852Z,48.29
2022-08-02T10:00:37.146Z,48.28
2022-08-02T10:03:21.575Z,46.41
2022-08-02T10:05:56.249Z,45.70
2022-08-02T10:08:33.639Z,45.80
2022-08-02T10:11:03.872Z,45.26
2022-08-02T10:13:35.599Z,45.01
2022-08-02T10:16:07.301Z,44.44
2022-08-02T10:18:40.503Z,43.23
2022-08-02T10:21:16.335Z,42.62
2022-08-02T10:23:47.987Z,43.76
2022-08-02T10:26:22.633Z,44.20
2022-08-02T10:28:54.266Z,43.36
2022-08-02T10:31:29.708Z,43.38
2022-08-02T10:34:02.846Z,42.67
2022-08-02T10:36:35.109Z,42.26
2022-08-02T10:39:05.255Z,41.85
2022-08-02T10:41:46.766Z,41.14
2022-08-02T10:44:30.169Z,41.68
2022-08-02T10:47:25.236Z,42.01
2022-08-02T10:49:57.303Z,41.29
2022-08-02T10:52:27.881Z,40.69
2022-08-02T10:55:01.105Z,39.87
2022-08-02T10:57:33.541Z,39.76
2022-08-02T11:00:12.578Z,38.77
2022-08-02T11:02:53.546Z,39.00
2022-08-02T11:05:42.492Z,39.04
2022-08-02T11:08:25.191Z,39.99
2022-08-02T11:11:01.734Z,38.83
2022-08-02T11:13:31.981Z,39.02
2022-08-02T11:16:11.166Z,39.76
2022-08-02T11:19:07.186Z,39.84
2022-08-02T11:21:37.471Z,38.70
2022-08-02T11:24:28.833Z,39.47
2022-08-02T11:26:59.395Z,39.45
2022-08-02T11:29:39.156Z,39.05
2022-08-02T11:32:10.705Z,39.73
2022-08-02T11:34:42.017Z,39.44
2022-08-02T11:37:11.681Z,39.58
2022-08-02T11:39:40.615Z,40.39
2022-08-02T11:42:09.779Z,39.88
2022-08-02T11:44:43.521Z,39.79
2022-08-02T11:47:12.836Z,39.69
2022-08-02T11:49:43.725Z,39.73
2022-08-02T11:52:12.756Z,39.72
2022-08-02T11:54:45.281Z,39.19
2022-08-02T11:57:20.170Z,38.97
2022-08-02T11:59:52.247Z,40.12
2022-08-02T12:02:23.118Z,40.69
2022-08-02T12:04:59.890Z,40.40
2022-08-02T12:07:34.338Z,40.87
2022-08-02T12:10:08.559Z,41.01
2022-08-02T12:12:50.359Z,39.81
2022-08-02T12:15:33.777Z,40.09
2022-08-02T12:18:20.815Z,40.27
2022-08-02T12:20:51.151Z,39.92
2022-08-02T12:23:19.929Z,39.92
2022-08-02T12:26:01.144Z,40.43
2022-08-02T12:28:29.796Z,40.18
2022-08-02T12:31:01.414Z,40.77
2022-08-02T12:33:46.622Z,40.42
2022-08-02T12:36:21.574Z,40.71
2022-08-02T12:38:53.969Z,40.81
2022-08-02T12:41:31.725Z,39.96
2022-08-02T12:44:01.789Z,40.69
2022-08-02T12:46:31.981Z,40.21
2022-08-02T12:49:18.977Z,40.12
2022-08-02T12:51:51.368Z,40.02
2022-08-02T12:54:30.930Z,40.30
2022-08-02T12:57:11.703Z,40.00
2022-08-02T12:59:42.447Z,40.34
2022-08-02T13:02:14.584Z,40.20
2022-08-02T13:04:50.071Z,40.40
2022-08-02T13:07:21.272Z,40.90
2022-08-02T13:09:50.263Z,40.61
2022-08-02T13:12:18.873Z,39.82
2022-08-02T13:14:47.699Z,38.17
2022-08-02T13:17:16.292Z,38.56
2022-08-02T13:19:44.889Z,39.36
2022-08-02T13:22:13.715Z,38.33
2022-08-02T13:24:55.623Z,38.45
2022-08-02T13:27:27.600Z,38.28
2022-08-02T13:29:58.429Z,38.65
2022-08-02T13:32:29.334Z,38.71
2022-08-02T13:34:59.391Z,39.29
2022-08-02T13:37:28.116Z,38.94
2022-08-02T13:40:20.635Z,38.78
2022-08-02T13:42:47.378Z,38.57
2022-08-02T13:45:16.595Z,38.90
2022-08-02T13:48:04.244Z,38.95
2022-08-02T13:50:34.405Z,38.67
2022-08-02T13:53:03.066Z,37.15
2022-08-02T13:55:33.447Z,37.16
2022-08-02T13:58:02.077Z,37.47
2022-08-02T14:00:35.410Z,37.56
2022-08-02T14:03:07.120Z,37.76
2022-08-02T14:05:48.349Z,36.72
2022-08-02T14:08:19.752Z,37.22
2022-08-02T14:10:52.053Z,37.46
2022-08-02T14:13:21.393Z,36.38
2022-08-02T14:15:50.209Z,36.31
2022-08-02T14:18:19.278Z,36.47
2022-08-02T14:20:48.211Z,35.22
2022-08-02T14:23:16.875Z,35.22
2022-08-02T14:25:45.840Z,36.06
2022-08-02T14:28:16.237Z,35.52
2022-08-02T14:30:45.178Z,35.32
2022-08-02T14:33:13.808Z,35.47
2022-08-02T14:35:42.828Z,35.56
2022-08-02T14:38:12.035Z,35.50
2022-08-02T14:40:40.766Z,35.79
2022-08-02T14:43:09.619Z,36.08
2022-08-02T14:45:41.439Z,35.92
2022-08-02T14:48:12.705Z,35.57
2022-08-02T14:50:41.571Z,34.66
2022-08-02T14:53:12.389Z,35.02
2022-08-02T14:55:43.418Z,35.01
2022-08-02T14:58:12.894Z,35.32
2022-08-02T15:00:43.904Z,35.45
2022-08-02T15:03:13.445Z,34.36
2022-08-02T15:05:42.403Z,34.91
2022-08-02T15:08:11.123Z,34.99
2022-08-02T15:10:46.788Z,34.32
2022-08-02T15:13:15.379Z,34.06
2022-08-02T15:15:45.663Z,34.16
2022-08-02T15:18:15.266Z,34.09
2022-08-02T15:20:57.415Z,34.00
2022-08-02T15:23:37.286Z,33.46
2022-08-02T15:26:07.817Z,33.79
2022-08-02T15:28:37.171Z,33.72
2022-08-02T15:31:07.264Z,33.01
2022-08-02T15:33:35.911Z,33.63
2022-08-02T15:36:04.896Z,33.62
2022-08-02T15:38:33.685Z,33.61
2022-08-02T15:41:02.436Z,33.60
2022-08-02T15:43:31.225Z,33.38
2022-08-02T15:45:59.855Z,33.34
2022-08-02T15:48:30.011Z,33.49
2022-08-02T15:50:58.691Z,33.65
2022-08-02T15:53:27.291Z,33.82
2022-08-02T15:56:05.730Z,33.92
2022-08-02T15:58:44.216Z,34.23
2022-08-02T16:01:14.140Z,33.47
2022-08-02T16:03:44.265Z,33.10
2022-08-02T16:06:15.641Z,33.43
2022-08-02T16:08:53.468Z,33.43
2022-08-02T16:11:23.423Z,32.78
2022-08-02T16:13:54.403Z,33.25
2022-08-02T16:16:25.836Z,33.41
2022-08-02T16:18:56.677Z,33.95
2022-08-02T16:21:25.908Z,33.04
2022-08-02T16:24:01.357Z,33.05
2022-08-02T16:26:34.109Z,33.16
2022-08-02T16:29:07.560Z,33.35
2022-08-02T16:31:42.442Z,33.38
2022-08-02T16:34:13.056Z,32.92
2022-08-02T16:36:41.713Z,33.45
2022-08-02T16:39:10.327Z,33.27
2022-08-02T16:41:50.322Z,33.39
2022-08-02T16:44:29.165Z,33.03
2022-08-02T16:47:01.181Z,33.38
2022-08-02T16:50:07.470Z,33.57
2022-08-02T16:52:21.277Z,32.85
2022-08-02T16:54:50.256Z,32.51
2022-08-02T16:57:19.757Z,32.98
2022-08-02T16:59:58.294Z,33.11
2022-08-02T17:02:27.916Z,33.58
2022-08-02T17:04:59.203Z,33.10
2022-08-02T17:08:10.359Z,33.17
2022-08-02T17:10:18.944Z,33.30
2022-08-02T17:12:51.241Z,33.26
2022-08-02T17:16:01.155Z,33.06
2022-08-02T17:18:09.968Z,33.69
2022-08-02T17:20:40.161Z,33.51
2022-08-02T17:23:16.398Z,33.41
2022-08-02T17:25:52.429Z,33.51
2022-08-02T17:28:21.596Z,33.73
2022-08-02T17:31:01.027Z,33.86
2022-08-02T17:33:29.928Z,34.02
2022-08-02T17:36:01.788Z,34.10
2022-08-02T17:38:31.605Z,33.68
2022-08-02T17:41:00.774Z,34.19
2022-08-02T17:43:33.603Z,34.17
2022-08-02T17:46:08.387Z,34.33
2022-08-02T17:48:54.901Z,34.53
2022-08-02T17:52:14.949Z,35.01
2022-08-02T17:54:18.852Z,35.01
2022-08-02T17:56:48.378Z,35.25
2022-08-02T17:59:22.448Z,35.24
2022-08-02T18:02:03.580Z,35.56
2022-08-02T18:04:34.486Z,35.52
2022-08-02T18:07:09.441Z,35.80
2022-08-02T18:09:43.317Z,36.01
2022-08-02T18:12:14.371Z,36.24
2022-08-02T18:14:46.121Z,37.03
2022-08-02T18:17:19.128Z,37.25
2022-08-02T18:19:55.326Z,37.64
2022-08-02T18:22:29.470Z,38.14
2022-08-02T18:24:58.679Z,38.47
2022-08-02T18:27:33.237Z,38.96
2022-08-02T18:30:05.928Z,39.52
2022-08-02T18:33:56.032Z,39.54
2022-08-02T18:35:24.924Z,39.95
2022-08-02T18:38:04.131Z,40.49
2022-08-02T18:40:39.719Z,40.46
2022-08-02T18:43:10.381Z,41.14
2022-08-02T18:46:05.819Z,41.07
2022-08-02T18:48:32.360Z,41.18
2022-08-02T18:51:01.554Z,41.78
2022-08-02T18:53:41.561Z,42.22
2022-08-02T18:56:19.617Z,42.28
2022-08-02T18:58:53.322Z,42.62
2022-08-02T19:01:33.502Z,42.63
2022-08-02T19:04:08.723Z,43.08
2022-08-02T19:06:38.004Z,43.32
2022-08-02T19:11:59.412Z,43.99
2022-08-02T19:14:28.920Z,44.70
2022-08-02T19:17:16.082Z,45.01
2022-08-02T19:19:51.411Z,45.25
2022-08-02T19:22:20.527Z,45.59
2022-08-02T19:25:00.037Z,46.05
2022-08-02T19:30:21.279Z,46.80
2022-08-02T19:32:58.684Z,47.02
2022-08-02T19:35:31.630Z,47.62
2022-08-02T19:38:11.653Z,47.81
2022-08-02T19:40:43.015Z,48.80
2022-08-02T19:44:23.662Z,49.31
2022-08-02T19:46:01.403Z,49.29
2022-08-02T19:48:30.303Z,49.48
2022-08-02T19:51:01.314Z,51.22
2022-08-02T19:53:48.557Z,52.81
2022-08-02T19:56:25.214Z,53.96
2022-08-02T19:58:57.188Z,53.34
2022-08-02T20:01:36.692Z,53.29
2022-08-02T20:04:13.693Z,53.13
2022-08-02T20:06:45.924Z,52.78
2022-08-02T20:09:21.465Z,52.86
2022-08-02T20:11:54.923Z,53.26
2022-08-02T20:14:26.742Z,53.50
2022-08-02T20:16:58.080Z,53.77
2022-08-02T20:19:29.590Z,54.30
2022-08-02T20:21:59.596Z,54.58
2022-08-02T20:24:29.797Z,55.36
2022-08-02T20:27:00.557Z,55.95
2022-08-02T20:29:43.232Z,55.99
2022-08-02T20:32:14.707Z,56.07
2022-08-02T20:34:48.533Z,56.76
2022-08-02T20:37:59.271Z,57.68
2022-08-02T20:40:08.065Z,57.52
2022-08-02T20:42:38.157Z,57.12
2022-08-02T20:45:09.603Z,57.44
2022-08-02T20:47:40.739Z,57.64
2022-08-02T20:50:31.350Z,58.06
2022-08-02T20:53:04.288Z,58.14
2022-08-02T20:55:35.779Z,59.73
2022-08-02T20:58:06.406Z,59.01
2022-08-02T21:00:41.696Z,58.77
2022-08-02T21:03:12.106Z,59.15
2022-08-02T21:05:55.734Z,59.06
2022-08-02T21:08:25.293Z,59.14
2022-08-02T21:10:59.942Z,59.29
2022-08-02T21:13:33.207Z,59.49
2022-08-02T21:16:04.938Z,59.61
2022-08-02T21:18:40.243Z,60.46
2022-08-02T21:21:11.148Z,61.35
2022-08-02T21:23:48.577Z,61.62
2022-08-02T21:26:19.694Z,62.58
2022-08-02T21:28:56.125Z,62.43
2022-08-02T21:31:30.129Z,62.19
2022-08-02T21:34:02.755Z,62.62
2022-08-02T21:36:33.743Z,62.77
2022-08-02T21:39:04.552Z,62.80
2022-08-02T21:41:39.499Z,62.83
2022-08-02T21:44:17.053Z,63.25
2022-08-02T21:46:49.490Z,63.40
2022-08-02T21:49:20.107Z,63.56
2022-08-02T21:51:50.354Z,63.91
2022-08-02T21:54:21.569Z,64.14
2022-08-02T21:56:52.798Z,64.42
2022-08-02T21:59:25.378Z,64.53
2022-08-02T22:01:57.086Z,65.10
2022-08-02T22:04:26.686Z,65.74
2022-08-02T22:06:56.093Z,66.60
2022-08-02T22:09:44.551Z,66.99
2022-08-02T22:12:18.084Z,67.74
2022-08-02T22:14:55.143Z,67.80
2022-08-02T22:17:51.621Z,69.19
2022-08-02T22:20:20.395Z,69.17
2022-08-02T22:22:52.221Z,69.83
2022-08-02T22:25:36.517Z,69.72
2022-08-02T22:28:38.685Z,70.00
2022-08-02T22:31:00.214Z,70.20
2022-08-02T22:34:00.781Z,70.45
2022-08-02T22:36:31.623Z,71.01
2022-08-02T22:39:01.981Z,71.37
2022-08-02T22:44:20.150Z,71.93
2022-08-02T22:46:50.501Z,72.18
2022-08-02T22:49:37.598Z,72.43
2022-08-02T22:52:10.628Z,72.67
2022-08-02T22:54:39.781Z,72.95
2022-08-02T22:57:11.262Z,73.59
2022-08-02T22:58:47.003Z,43.86
2022-08-02T22:58:57.786Z,46.44
2022-08-02T22:59:41.641Z,73.51
2022-08-02T23:02:12.221Z,73.76
2022-08-02T23:04:41.348Z,74.14
2022-08-02T23:07:10.381Z,74.83
2022-08-02T23:09:39.384Z,75.11
2022-08-02T23:12:08.788Z,75.22
2022-08-02T23:14:37.889Z,75.37
2022-08-02T23:17:35.660Z,75.89
2022-08-02T23:20:08.027Z,75.86
2022-08-02T23:22:37.181Z,76.17
2022-08-02T23:25:08.564Z,76.73
2022-08-02T23:27:37.548Z,77.03
2022-08-02T23:30:08.263Z,77.69
2022-08-02T23:32:39.563Z,78.42
2022-08-02T23:35:11.008Z,78.34
2022-08-02T23:37:59.249Z,78.62
2022-08-02T23:40:31.680Z,78.52
2022-08-02T23:43:13.860Z,78.69
2022-08-02T23:45:46.461Z,78.95
2022-08-02T23:48:15.824Z,79.16
2022-08-02T23:50:45.909Z,79.48
2022-08-02T23:53:15.033Z,80.15
2022-08-02T23:55:43.682Z,80.57
2022-08-02T23:58:14.107Z,80.66
